sensor_id;sensor_type;location;lat;lon;timestamp;pressure;altitude;pressure_sealevel;temperature;humidity
71057;BME280;58380;48.312;9.246;2022-09-12T04:10:08;93652.47;;;4.70;100.00
71057;BME280;58380;48.312;9.246;2022-09-12T04:12:34;93668.88;;;4.78;100.00
71057;BME280;58380;48.312;9.246;2022-09-12T04:15:00;93647.59;;;4.74;100.00
71057;BME280;58380;48.312;9.246;2022-09-12T04:17:25;93627.22;;;4.64;100.00
71057;BME280;58380;48.312;9.246;2022-09-12T04:19:50;93683.97;;;4.94;100.00
71057;BME280;58380;48.312;9.246;2022-09-12T04:22:16;93636.28;;;4.62;100.00
71057;BME280;58380;48.312;9.246;2022-09-12T04:24:41;93651.81;;;4.75;100.00
71057;BME280;58380;48.312;9.246;2022-09-12T04:27:07;93658.78;;;4.81;100.00
71057;BME280;58380;48.312;9.246;2022-09-12T04:29:32;93672.22;;;4.85;100.00
71057;BME280;58380;48.312;9.246;2022-09-12T04:31:57;93659.16;;;4.85;100.00
71057;BME280;58380;48.312;9.246;2022-09-12T04:34:23;93684.47;;;5.03;100.00
71057;BME280;58380;48.312;9.246;2022-09-12T04:36:48;93618.44;;;4.59;100.00
71057;BME280;58380;48.312;9.246;2022-09-12T04:39:14;93641.81;;;4.72;100.00
71057;BME280;58380;48.312;9.246;2022-09-12T04:41:41;93688.31;;;5.00;100.00
71057;BME280;58380;48.312;9.246;2022-09-12T04:44:10;93693.31;;;5.02;100.00
71057;BME280;58380;48.312;9.246;2022-09-12T04:46:41;93674.72;;;4.91;100.00
71057;BME280;58380;48.312;9.246;2022-09-12T04:49:09;93653.34;;;4.83;100.00
71057;BME280;58380;48.312;9.246;2022-09-12T04:51:37;93707.38;;;5.19;100.00
71057;BME280;58380;48.312;9.246;2022-09-12T04:54:10;93711.03;;;5.18;100.00
71057;BME280;58380;48.312;9.246;2022-09-12T04:56:39;93700.09;;;5.09;100.00
71057;BME280;58380;48.312;9.246;2022-09-12T04:59:06;93679.22;;;5.03;100.00
71057;BME280;58380;48.312;9.246;2022-09-12T05:01:33;93648.19;;;4.76;100.00
71057;BME280;58380;48.312;9.246;2022-09-12T05:04:00;93660.41;;;4.94;100.00
71057;BME280;58380;48.312;9.246;2022-09-12T05:06:30;93706.28;;;5.27;100.00
71057;BME280;58380;48.312;9.246;2022-09-12T05:08:59;93698.53;;;5.20;100.00
71057;BME280;58380;48.312;9.246;2022-09-12T05:11:31;93667.88;;;5.09;100.00
71057;BME280;58380;48.312;9.246;2022-09-12T05:13:58;93679.28;;;5.14;100.00
71057;BME280;58380;48.312;9.246;2022-09-12T05:16:25;93685.91;;;5.29;100.00
71057;BME280;58380;48.312;9.246;2022-09-12T05:18:52;93681.00;;;5.21;100.00
71057;BME280;58380;48.312;9.246;2022-09-12T05:21:21;93702.81;;;5.45;100.00
71057;BME280;58380;48.312;9.246;2022-09-12T05:23:51;93681.94;;;5.38;100.00
71057;BME280;58380;48.312;9.246;2022-09-12T05:26:20;93687.53;;;5.41;100.00
71057;BME280;58380;48.312;9.246;2022-09-12T05:28:48;93709.66;;;5.57;100.00
71057;BME280;58380;48.312;9.246;2022-09-12T05:33:53;93699.84;;;5.53;100.00
71057;BME280;58380;48.312;9.246;2022-09-12T05:36:22;93705.47;;;5.68;100.00
71057;BME280;58380;48.312;9.246;2022-09-12T05:38:49;93679.94;;;5.52;100.00
71057;BME280;58380;48.312;9.246;2022-09-12T05:41:17;93696.25;;;5.66;100.00
71057;BME280;58380;48.312;9.246;2022-09-12T05:43:45;93644.41;;;5.32;100.00
71057;BME280;58380;48.312;9.246;2022-09-12T05:46:16;93684.28;;;5.58;100.00
71057;BME280;58380;48.312;9.246;2022-09-12T05:48:44;93694.06;;;5.62;100.00
71057;BME280;58380;48.312;9.246;2022-09-12T05:51:16;93667.53;;;5.47;100.00
71057;BME280;58380;48.312;9.246;2022-09-12T05:53:50;93715.63;;;5.88;100.00
71057;BME280;58380;48.312;9.246;2022-09-12T05:56:20;93690.47;;;5.87;100.00
71057;BME280;58380;48.312;9.246;2022-09-12T05:58:58;93696.97;;;5.96;100.00
71057;BME280;58380;48.312;9.246;2022-09-12T06:01:48;93706.00;;;6.12;99.72
71057;BME280;58380;48.312;9.246;2022-09-12T06:04:13;93716.25;;;6.25;98.85
71057;BME280;58380;48.312;9.246;2022-09-12T06:06:41;93710.78;;;6.27;98.25
71057;BME280;58380;48.312;9.246;2022-09-12T06:09:09;93659.75;;;5.94;98.17
71057;BME280;58380;48.312;9.246;2022-09-12T06:11:37;93697.09;;;6.25;98.02
71057;BME280;58380;48.312;9.246;2022-09-12T06:14:06;93721.50;;;6.49;98.19
71057;BME280;58380;48.312;9.246;2022-09-12T06:16:33;93719.53;;;6.56;98.09
71057;BME280;58380;48.312;9.246;2022-09-12T06:19:10;93716.88;;;6.68;97.96
71057;BME280;58380;48.312;9.246;2022-09-12T06:21:38;93716.63;;;6.81;97.98
71057;BME280;58380;48.312;9.246;2022-09-12T06:24:04;93694.38;;;6.84;98.29
71057;BME280;58380;48.312;9.246;2022-09-12T06:26:31;93692.06;;;6.99;98.40
71057;BME280;58380;48.312;9.246;2022-09-12T06:28:59;93676.91;;;7.18;98.53
71057;BME280;58380;48.312;9.246;2022-09-12T06:31:29;93690.13;;;7.52;98.14
71057;BME280;58380;48.312;9.246;2022-09-12T06:33:59;93712.13;;;7.80;96.56
71057;BME280;58380;48.312;9.246;2022-09-12T06:36:28;93667.59;;;7.73;96.73
71057;BME280;58380;48.312;9.246;2022-09-12T06:39:01;93703.19;;;8.14;96.51
71057;BME280;58380;48.312;9.246;2022-09-12T06:41:29;93705.88;;;8.36;95.97
71057;BME280;58380;48.312;9.246;2022-09-12T06:43:56;93667.38;;;8.30;95.07
71057;BME280;58380;48.312;9.246;2022-09-12T06:46:23;93672.09;;;8.45;94.90
71057;BME280;58380;48.312;9.246;2022-09-12T06:48:49;93702.03;;;8.83;94.91
71057;BME280;58380;48.312;9.246;2022-09-12T06:51:17;93698.78;;;8.98;94.35
71057;BME280;58380;48.312;9.246;2022-09-12T06:53:47;93679.63;;;9.02;94.52
71057;BME280;58380;48.312;9.246;2022-09-12T06:56:18;93679.09;;;9.27;95.17
71057;BME280;58380;48.312;9.246;2022-09-12T06:58:46;93685.63;;;9.47;94.20
71057;BME280;58380;48.312;9.246;2022-09-12T07:03:46;93679.56;;;9.74;93.27
71057;BME280;58380;48.312;9.246;2022-09-12T07:06:15;93691.28;;;9.93;91.92
71057;BME280;58380;48.312;9.246;2022-09-12T07:08:42;93637.19;;;9.53;92.82
71057;BME280;58380;48.312;9.246;2022-09-12T07:11:16;93705.50;;;10.24;95.25
71057;BME280;58380;48.312;9.246;2022-09-12T07:13:45;93686.38;;;10.39;95.10
71057;BME280;58380;48.312;9.246;2022-09-12T07:16:13;93683.09;;;10.64;93.35
71057;BME280;58380;48.312;9.246;2022-09-12T07:18:39;93690.09;;;10.96;92.10
71057;BME280;58380;48.312;9.246;2022-09-12T07:21:07;93658.94;;;11.03;92.23
71057;BME280;58380;48.312;9.246;2022-09-12T07:23:36;93644.19;;;11.07;90.83
71057;BME280;58380;48.312;9.246;2022-09-12T07:26:02;93692.63;;;11.43;90.97
71057;BME280;58380;48.312;9.246;2022-09-12T07:28:29;93663.25;;;11.30;90.09
71057;BME280;58380;48.312;9.246;2022-09-12T07:30:56;93665.13;;;11.34;89.99
71057;BME280;58380;48.312;9.246;2022-09-12T07:33:26;93695.56;;;11.57;92.36
71057;BME280;58380;48.312;9.246;2022-09-12T07:35:52;93686.06;;;11.72;92.93
71057;BME280;58380;48.312;9.246;2022-09-12T07:38:19;93640.31;;;11.66;91.42
71057;BME280;58380;48.312;9.246;2022-09-12T07:40:45;93671.56;;;12.00;90.43
71057;BME280;58380;48.312;9.246;2022-09-12T07:43:10;93627.91;;;11.92;88.78
71057;BME280;58380;48.312;9.246;2022-09-12T07:45:36;93696.66;;;12.48;87.02
71057;BME280;58380;48.312;9.246;2022-09-12T07:48:05;93593.78;;;12.01;89.13
71057;BME280;58380;48.312;9.246;2022-09-12T07:50:30;93682.56;;;12.73;90.02
71057;BME280;58380;48.312;9.246;2022-09-12T07:52:57;93661.28;;;12.99;87.95
71057;BME280;58380;48.312;9.246;2022-09-12T07:55:23;93620.81;;;12.88;88.90
71057;BME280;58380;48.312;9.246;2022-09-12T07:57:49;93669.81;;;13.51;86.13
71057;BME280;58380;48.312;9.246;2022-09-12T08:00:16;93645.16;;;13.45;87.08
71057;BME280;58380;48.312;9.246;2022-09-12T08:02:42;93668.00;;;13.86;89.09
71057;BME280;58380;48.312;9.246;2022-09-12T08:05:08;93669.97;;;14.04;86.24
71057;BME280;58380;48.312;9.246;2022-09-12T08:07:33;93639.38;;;14.12;85.13
71057;BME280;58380;48.312;9.246;2022-09-12T08:09:59;93652.31;;;14.48;83.91
71057;BME280;58380;48.312;9.246;2022-09-12T08:12:27;93653.41;;;14.46;83.83
71057;BME280;58380;48.312;9.246;2022-09-12T08:14:52;93673.69;;;14.91;80.52
71057;BME280;58380;48.312;9.246;2022-09-12T08:17:18;93676.31;;;15.15;79.58
71057;BME280;58380;48.312;9.246;2022-09-12T08:19:43;93657.38;;;15.21;76.60
71057;BME280;58380;48.312;9.246;2022-09-12T08:22:10;93676.16;;;15.49;75.78
71057;BME280;58380;48.312;9.246;2022-09-12T08:24:36;93677.63;;;15.60;77.13
71057;BME280;58380;48.312;9.246;2022-09-12T08:27:04;93661.94;;;15.59;74.86
71057;BME280;58380;48.312;9.246;2022-09-12T08:29:30;93641.75;;;15.58;76.92
71057;BME280;58380;48.312;9.246;2022-09-12T08:31:56;93648.75;;;15.67;75.71
71057;BME280;58380;48.312;9.246;2022-09-12T08:34:21;93633.88;;;15.66;76.62
71057;BME280;58380;48.312;9.246;2022-09-12T08:36:48;93654.31;;;15.90;70.65
71057;BME280;58380;48.312;9.246;2022-09-12T08:39:14;93637.94;;;15.83;75.43
71057;BME280;58380;48.312;9.246;2022-09-12T08:41:41;93664.84;;;16.14;75.00
71057;BME280;58380;48.312;9.246;2022-09-12T08:46:57;93686.88;;;16.20;72.19
71057;BME280;58380;48.312;9.246;2022-09-12T08:53:03;93658.84;;;16.22;72.30
71057;BME280;58380;48.312;9.246;2022-09-12T08:58:14;93649.88;;;16.18;66.06
71057;BME280;58380;48.312;9.246;2022-09-12T09:00:48;93681.09;;;16.31;67.71
71057;BME280;58380;48.312;9.246;2022-09-12T09:09:48;93648.13;;;16.27;65.38
71057;BME280;58380;48.312;9.246;2022-09-12T09:15:28;93682.53;;;16.56;66.90
71057;BME280;58380;48.312;9.246;2022-09-12T09:18:18;93636.31;;;16.33;63.75
71057;BME280;58380;48.312;9.246;2022-09-12T09:23:40;93670.47;;;16.78;62.65
71057;BME280;58380;48.312;9.246;2022-09-12T09:26:20;93646.63;;;16.68;66.02
71057;BME280;58380;48.312;9.246;2022-09-12T09:28:58;93676.38;;;16.89;63.33
71057;BME280;58380;48.312;9.246;2022-09-12T09:31:34;93672.63;;;16.90;63.59
71057;BME280;58380;48.312;9.246;2022-09-12T09:34:12;93613.34;;;16.51;64.38
71057;BME280;58380;48.312;9.246;2022-09-12T09:36:49;93661.06;;;16.94;65.21
71057;BME280;58380;48.312;9.246;2022-09-12T09:39:30;93684.59;;;17.06;62.57
71057;BME280;58380;48.312;9.246;2022-09-12T09:45:10;93668.59;;;17.06;65.32
71057;BME280;58380;48.312;9.246;2022-09-12T09:47:40;93646.66;;;17.09;63.79
71057;BME280;58380;48.312;9.246;2022-09-12T09:50:13;93660.84;;;17.32;61.56
71057;BME280;58380;48.312;9.246;2022-09-12T09:52:41;93660.78;;;17.23;61.46
71057;BME280;58380;48.312;9.246;2022-09-12T09:55:14;93623.16;;;17.11;65.84
71057;BME280;58380;48.312;9.246;2022-09-12T09:57:45;93618.41;;;17.08;64.98
71057;BME280;58380;48.312;9.246;2022-09-12T10:00:24;93658.66;;;17.48;62.85
71057;BME280;58380;48.312;9.246;2022-09-12T10:05:54;93660.22;;;17.63;64.00
71057;BME280;58380;48.312;9.246;2022-09-12T10:08:29;93652.31;;;17.58;63.53
71057;BME280;58380;48.312;9.246;2022-09-12T10:11:16;93654.50;;;17.56;60.76
71057;BME280;58380;48.312;9.246;2022-09-12T10:16:28;93554.81;;;17.01;64.40
71057;BME280;58380;48.312;9.246;2022-09-12T10:19:00;93640.94;;;17.52;62.43
71057;BME280;58380;48.312;9.246;2022-09-12T10:21:31;93670.28;;;17.80;60.83
71057;BME280;58380;48.312;9.246;2022-09-12T10:27:05;93649.59;;;17.72;59.67
71057;BME280;58380;48.312;9.246;2022-09-12T10:29:39;93647.16;;;17.61;54.96
71057;BME280;58380;48.312;9.246;2022-09-12T10:32:34;93643.16;;;17.86;55.44
71057;BME280;58380;48.312;9.246;2022-09-12T10:40:29;93478.56;;;17.00;56.90
71057;BME280;58380;48.312;9.246;2022-09-12T10:43:01;93676.94;;;18.27;55.08
71057;BME280;58380;48.312;9.246;2022-09-12T10:45:39;93552.47;;;17.59;57.54
71057;BME280;58380;48.312;9.246;2022-09-12T10:48:30;93661.56;;;18.33;55.83
71057;BME280;58380;48.312;9.246;2022-09-12T10:50:58;93639.34;;;18.24;56.72
71057;BME280;58380;48.312;9.246;2022-09-12T10:53:27;93653.53;;;18.33;55.96
71057;BME280;58380;48.312;9.246;2022-09-12T10:56:17;93649.13;;;18.28;56.40
71057;BME280;58380;48.312;9.246;2022-09-12T11:01:59;93609.09;;;18.37;51.62
71057;BME280;58380;48.312;9.246;2022-09-12T11:05:00;93649.59;;;18.62;50.93
71057;BME280;58380;48.312;9.246;2022-09-12T11:07:46;93639.97;;;18.52;51.31
71057;BME280;58380;48.312;9.246;2022-09-12T11:13:47;93635.13;;;18.31;54.29
71057;BME280;58380;48.312;9.246;2022-09-12T11:16:36;93640.56;;;18.49;55.60
71057;BME280;58380;48.312;9.246;2022-09-12T11:22:22;93617.50;;;18.53;49.41
71057;BME280;58380;48.312;9.246;2022-09-12T11:25:11;93620.66;;;18.55;49.78
71057;BME280;58380;48.312;9.246;2022-09-12T11:31:06;93647.75;;;18.62;53.16
71057;BME280;58380;48.312;9.246;2022-09-12T11:33:42;93629.97;;;18.66;49.46
71057;BME280;58380;48.312;9.246;2022-09-12T11:36:18;93635.16;;;18.63;46.35
71057;BME280;58380;48.312;9.246;2022-09-12T11:39:01;93633.88;;;18.60;48.72
71057;BME280;58380;48.312;9.246;2022-09-12T11:41:41;93631.56;;;18.67;51.08
71057;BME280;58380;48.312;9.246;2022-09-12T11:44:28;93623.28;;;18.78;49.92
71057;BME280;58380;48.312;9.246;2022-09-12T11:47:04;93634.00;;;18.86;50.39
71057;BME280;58380;48.312;9.246;2022-09-12T11:49:38;93540.97;;;18.26;46.29
71057;BME280;58380;48.312;9.246;2022-09-12T11:52:19;93612.19;;;19.02;45.22
71057;BME280;58380;48.312;9.246;2022-09-12T11:55:04;93604.50;;;19.09;49.17
71057;BME280;58380;48.312;9.246;2022-09-12T11:57:52;93614.25;;;19.05;50.68
71057;BME280;58380;48.312;9.246;2022-09-12T12:00:23;93547.50;;;18.51;49.03
71057;BME280;58380;48.312;9.246;2022-09-12T12:03:05;93623.69;;;19.02;47.97
71057;BME280;58380;48.312;9.246;2022-09-12T12:05:58;93608.56;;;18.98;49.96
71057;BME280;58380;48.312;9.246;2022-09-12T12:08:37;93615.53;;;19.07;47.20
71057;BME280;58380;48.312;9.246;2022-09-12T12:11:06;93619.47;;;19.10;48.73
71057;BME280;58380;48.312;9.246;2022-09-12T12:13:50;93622.94;;;19.10;51.93
71057;BME280;58380;48.312;9.246;2022-09-12T12:16:36;93608.91;;;19.05;51.59
71057;BME280;58380;48.312;9.246;2022-09-12T12:19:29;93611.28;;;19.15;49.85
71057;BME280;58380;48.312;9.246;2022-09-12T12:22:22;93596.03;;;19.15;51.43
71057;BME280;58380;48.312;9.246;2022-09-12T12:38:35;93582.72;;;19.76;47.82
71057;BME280;58380;48.312;9.246;2022-09-12T12:43:44;93582.72;;;19.85;48.79
71057;BME280;58380;48.312;9.246;2022-09-12T12:46:15;93547.75;;;19.73;50.44
71057;BME280;58380;48.312;9.246;2022-09-12T12:49:00;93587.25;;;20.19;43.61
71057;BME280;58380;48.312;9.246;2022-09-12T12:51:53;93572.72;;;20.20;45.95
71057;BME280;58380;48.312;9.246;2022-09-12T12:54:33;93580.47;;;20.22;48.40
71057;BME280;58380;48.312;9.246;2022-09-12T13:00:00;93564.06;;;20.15;44.02
71057;BME280;58380;48.312;9.246;2022-09-12T13:02:39;93545.19;;;19.94;45.53
71057;BME280;58380;48.312;9.246;2022-09-12T13:05:20;93527.09;;;19.82;44.94
71057;BME280;58380;48.312;9.246;2022-09-12T13:07:57;93552.75;;;20.00;47.56
71057;BME280;58380;48.312;9.246;2022-09-12T13:10:30;93551.75;;;20.14;47.13
71057;BME280;58380;48.312;9.246;2022-09-12T13:12:56;93574.47;;;20.16;47.17
71057;BME280;58380;48.312;9.246;2022-09-12T13:18:03;93569.81;;;20.43;44.84
71057;BME280;58380;48.312;9.246;2022-09-12T13:20:36;93556.56;;;20.46;45.98
71057;BME280;58380;48.312;9.246;2022-09-12T13:23:22;93560.84;;;20.39;46.61
71057;BME280;58380;48.312;9.246;2022-09-12T13:25:56;93465.69;;;19.51;46.18
71057;BME280;58380;48.312;9.246;2022-09-12T13:28:25;93555.88;;;20.11;48.08
71057;BME280;58380;48.312;9.246;2022-09-12T13:30:59;93554.31;;;20.01;47.19
71057;BME280;58380;48.312;9.246;2022-09-12T13:33:36;93565.94;;;20.14;48.16
71057;BME280;58380;48.312;9.246;2022-09-12T13:36:29;93559.75;;;20.40;43.53
71057;BME280;58380;48.312;9.246;2022-09-12T13:39:12;93477.97;;;20.16;41.12
71057;BME280;58380;48.312;9.246;2022-09-12T13:44:50;93493.47;;;20.58;41.30
71057;BME280;58380;48.312;9.246;2022-09-12T13:47:29;93544.53;;;21.00;45.01
71057;BME280;58380;48.312;9.246;2022-09-12T13:49:59;93535.59;;;20.87;46.26
71057;BME280;58380;48.312;9.246;2022-09-12T13:52:32;93514.75;;;20.84;44.03
71057;BME280;58380;48.312;9.246;2022-09-12T13:55:05;93549.16;;;21.11;44.76
71057;BME280;58380;48.312;9.246;2022-09-12T13:57:56;93526.56;;;20.92;41.43
71057;BME280;58380;48.312;9.246;2022-09-12T14:00:24;93530.56;;;21.06;41.51
71057;BME280;58380;48.312;9.246;2022-09-12T14:02:52;93490.38;;;20.98;44.56
71057;BME280;58380;48.312;9.246;2022-09-12T14:05:38;93522.88;;;21.26;40.08
71057;BME280;58380;48.312;9.246;2022-09-12T14:08:10;93522.94;;;21.38;42.12
71057;BME280;58380;48.312;9.246;2022-09-12T14:10:40;93524.56;;;21.39;40.86
71057;BME280;58380;48.312;9.246;2022-09-12T14:13:11;93520.44;;;21.42;44.90
71057;BME280;58380;48.312;9.246;2022-09-12T14:15:50;93524.94;;;21.50;40.97
71057;BME280;58380;48.312;9.246;2022-09-12T14:18:28;93535.78;;;21.53;42.27
71057;BME280;58380;48.312;9.246;2022-09-12T14:21:19;93513.25;;;21.46;44.09
71057;BME280;58380;48.312;9.246;2022-09-12T14:23:57;93527.28;;;21.72;44.48
71057;BME280;58380;48.312;9.246;2022-09-12T14:26:27;93511.72;;;21.78;45.95
71057;BME280;58380;48.312;9.246;2022-09-12T14:28:56;93485.78;;;21.61;43.75
71057;BME280;58380;48.312;9.246;2022-09-12T14:34:07;93487.53;;;21.78;44.24
71057;BME280;58380;48.312;9.246;2022-09-12T14:36:40;93512.78;;;21.98;44.88
71057;BME280;58380;48.312;9.246;2022-09-12T14:39:16;93502.59;;;21.58;46.15
71057;BME280;58380;48.312;9.246;2022-09-12T14:41:46;93510.56;;;21.67;46.81
71057;BME280;58380;48.312;9.246;2022-09-12T14:44:19;93494.00;;;21.65;45.24
71057;BME280;58380;48.312;9.246;2022-09-12T14:46:48;93497.06;;;21.75;43.74
71057;BME280;58380;48.312;9.246;2022-09-12T14:49:32;93484.06;;;21.78;45.28
71057;BME280;58380;48.312;9.246;2022-09-12T14:52:02;93506.72;;;21.89;43.59
71057;BME280;58380;48.312;9.246;2022-09-12T14:57:01;93494.09;;;21.89;45.12
71057;BME280;58380;48.312;9.246;2022-09-12T14:59:43;93491.63;;;21.63;45.52
71057;BME280;58380;48.312;9.246;2022-09-12T15:02:19;93497.38;;;21.74;45.04
71057;BME280;58380;48.312;9.246;2022-09-12T15:05:20;93489.53;;;21.69;44.88
71057;BME280;58380;48.312;9.246;2022-09-12T15:10:31;93494.56;;;21.70;45.75
71057;BME280;58380;48.312;9.246;2022-09-12T15:15:38;93494.69;;;21.74;45.24
71057;BME280;58380;48.312;9.246;2022-09-12T15:18:05;93465.97;;;21.53;45.92
71057;BME280;58380;48.312;9.246;2022-09-12T15:20:30;93491.47;;;21.47;46.06
71057;BME280;58380;48.312;9.246;2022-09-12T15:22:57;93483.19;;;21.31;45.98
71057;BME280;58380;48.312;9.246;2022-09-12T15:25:23;93481.63;;;21.30;47.26
71057;BME280;58380;48.312;9.246;2022-09-12T15:27:52;93485.53;;;21.33;46.36
71057;BME280;58380;48.312;9.246;2022-09-12T15:30:18;93472.91;;;21.33;47.48
71057;BME280;58380;48.312;9.246;2022-09-12T15:32:44;93488.19;;;21.42;45.22
71057;BME280;58380;48.312;9.246;2022-09-12T15:35:19;93480.06;;;21.29;45.84
71057;BME280;58380;48.312;9.246;2022-09-12T15:37:47;93480.13;;;21.21;46.27
71057;BME280;58380;48.312;9.246;2022-09-12T15:40:14;93473.69;;;21.13;47.04
71057;BME280;58380;48.312;9.246;2022-09-12T15:42:40;93440.19;;;20.98;46.85
71057;BME280;58380;48.312;9.246;2022-09-12T15:45:14;93488.13;;;21.29;45.22
71057;BME280;58380;48.312;9.246;2022-09-12T15:47:43;93463.44;;;21.15;45.75
71057;BME280;58380;48.312;9.246;2022-09-12T15:50:08;93491.19;;;21.19;45.72
71057;BME280;58380;48.312;9.246;2022-09-12T15:52:35;93452.75;;;20.85;45.62
71057;BME280;58380;48.312;9.246;2022-09-12T15:55:00;93485.41;;;21.08;45.62
71057;BME280;58380;48.312;9.246;2022-09-12T15:57:26;93470.34;;;20.95;46.43
71057;BME280;58380;48.312;9.246;2022-09-12T15:59:51;93477.16;;;20.93;46.53
71057;BME280;58380;48.312;9.246;2022-09-12T16:02:17;93476.63;;;20.78;48.22
71057;BME280;58380;48.312;9.246;2022-09-12T16:04:42;93480.88;;;20.79;47.15
71057;BME280;58380;48.312;9.246;2022-09-12T16:11:58;93439.94;;;20.61;46.28
71057;BME280;58380;48.312;9.246;2022-09-12T16:14:23;93466.53;;;20.75;48.01
71057;BME280;58380;48.312;9.246;2022-09-12T16:16:53;93452.63;;;20.43;48.31
71057;BME280;58380;48.312;9.246;2022-09-12T16:19:19;93409.50;;;19.98;48.43
71057;BME280;58380;48.312;9.246;2022-09-12T16:21:45;93463.97;;;20.19;49.10
71057;BME280;58380;48.312;9.246;2022-09-12T16:24:11;93456.28;;;20.00;50.44
71057;BME280;58380;48.312;9.246;2022-09-12T16:26:36;93446.16;;;19.68;50.82
71057;BME280;58380;48.312;9.246;2022-09-12T16:29:02;93461.25;;;19.64;50.65
71057;BME280;58380;48.312;9.246;2022-09-12T16:31:27;93439.41;;;19.35;51.41
71057;BME280;58380;48.312;9.246;2022-09-12T16:33:53;93396.78;;;18.87;53.14
71057;BME280;58380;48.312;9.246;2022-09-12T16:36:20;93440.97;;;19.02;52.92
71057;BME280;58380;48.312;9.246;2022-09-12T16:38:48;93410.91;;;18.70;53.33
71057;BME280;58380;48.312;9.246;2022-09-12T16:41:17;93406.97;;;18.59;54.05
71057;BME280;58380;48.312;9.246;2022-09-12T16:43:44;93424.94;;;18.75;54.85
71057;BME280;58380;48.312;9.246;2022-09-12T16:46:24;93441.13;;;18.79;54.40
71057;BME280;58380;48.312;9.246;2022-09-12T16:48:55;93440.63;;;18.68;56.12
71057;BME280;58380;48.312;9.246;2022-09-12T16:51:27;93435.88;;;18.57;55.92
71057;BME280;58380;48.312;9.246;2022-09-12T16:53:56;93439.47;;;18.43;57.19
71057;BME280;58380;48.312;9.246;2022-09-12T16:56:22;93418.09;;;18.35;56.65
71057;BME280;58380;48.312;9.246;2022-09-12T16:58:48;93421.03;;;18.24;57.36
71057;BME280;58380;48.312;9.246;2022-09-12T17:01:15;93445.25;;;18.28;58.45
71057;BME280;58380;48.312;9.246;2022-09-12T17:03:45;93421.25;;;17.97;57.91
71057;BME280;58380;48.312;9.246;2022-09-12T17:06:13;93449.09;;;18.04;59.96
71057;BME280;58380;48.312;9.246;2022-09-12T17:08:43;93368.72;;;17.43;60.34
71057;BME280;58380;48.312;9.246;2022-09-12T17:11:20;93438.94;;;17.84;60.77
71057;BME280;58380;48.312;9.246;2022-09-12T17:13:55;93436.66;;;17.68;61.93
71057;BME280;58380;48.312;9.246;2022-09-12T17:16:23;93394.06;;;17.32;62.46
71057;BME280;58380;48.312;9.246;2022-09-12T17:18:50;93451.03;;;17.59;63.12
71057;BME280;58380;48.312;9.246;2022-09-12T17:21:16;93390.13;;;17.07;63.56
71057;BME280;58380;48.312;9.246;2022-09-12T17:23:42;93421.94;;;17.17;64.44
71057;BME280;58380;48.312;9.246;2022-09-12T17:26:09;93403.53;;;16.93;64.56
71057;BME280;58380;48.312;9.246;2022-09-12T17:28:36;93418.16;;;16.96;64.77
71057;BME280;58380;48.312;9.246;2022-09-12T17:31:05;93452.56;;;17.06;65.52
71057;BME280;58380;48.312;9.246;2022-09-12T17:33:33;93459.78;;;17.06;66.32
71057;BME280;58380;48.312;9.246;2022-09-12T17:36:03;93477.41;;;16.93;67.84
71057;BME280;58380;48.312;9.246;2022-09-12T17:38:41;93407.22;;;16.33;67.53
71057;BME280;58380;48.312;9.246;2022-09-12T17:41:09;93444.59;;;16.56;67.51
71057;BME280;58380;48.312;9.246;2022-09-12T17:43:43;93486.22;;;16.66;68.03
71057;BME280;58380;48.312;9.246;2022-09-12T17:46:10;93477.06;;;16.58;68.55
71057;BME280;58380;48.312;9.246;2022-09-12T17:48:36;93480.72;;;16.48;69.45
71057;BME280;58380;48.312;9.246;2022-09-12T17:51:09;93448.47;;;16.08;69.77
71057;BME280;58380;48.312;9.246;2022-09-12T17:53:36;93439.09;;;15.97;69.74
71057;BME280;58380;48.312;9.246;2022-09-12T17:56:02;93490.69;;;16.15;71.28
71057;BME280;58380;48.312;9.246;2022-09-12T17:58:30;93471.03;;;15.83;72.34
71057;BME280;58380;48.312;9.246;2022-09-12T18:01:09;93488.16;;;15.77;73.01
71057;BME280;58380;48.312;9.246;2022-09-12T18:03:58;93480.59;;;15.51;74.04
71057;BME280;58380;48.312;9.246;2022-09-12T18:06:26;93478.38;;;15.40;74.57
71057;BME280;58380;48.312;9.246;2022-09-12T18:08:52;93414.03;;;14.91;74.64
71057;BME280;58380;48.312;9.246;2022-09-12T18:11:18;93434.28;;;14.87;75.16
71057;BME280;58380;48.312;9.246;2022-09-12T18:13:43;93466.44;;;15.04;75.54
71057;BME280;58380;48.312;9.246;2022-09-12T18:16:10;93493.81;;;15.05;76.37
71057;BME280;58380;48.312;9.246;2022-09-12T18:18:37;93491.88;;;14.92;76.26
71057;BME280;58380;48.312;9.246;2022-09-12T18:21:04;93443.13;;;14.63;76.58
71057;BME280;58380;48.312;9.246;2022-09-12T18:23:32;93463.03;;;14.66;77.43
71057;BME280;58380;48.312;9.246;2022-09-12T18:26:00;93448.69;;;14.43;78.11
71057;BME280;58380;48.312;9.246;2022-09-12T18:28:28;93482.63;;;14.46;78.69
71057;BME280;58380;48.312;9.246;2022-09-12T18:30:55;93417.91;;;13.99;78.80
71057;BME280;58380;48.312;9.246;2022-09-12T18:33:21;93468.66;;;14.16;79.49
71057;BME280;58380;48.312;9.246;2022-09-12T18:35:46;93396.53;;;13.66;80.02
71057;BME280;58380;48.312;9.246;2022-09-12T18:38:12;93415.16;;;13.61;80.14
71057;BME280;58380;48.312;9.246;2022-09-12T18:40:37;93474.19;;;13.96;79.91
71057;BME280;58380;48.312;9.246;2022-09-12T18:43:03;93448.16;;;13.74;80.28
71057;BME280;58380;48.312;9.246;2022-09-12T18:45:28;93452.78;;;13.63;80.70
71057;BME280;58380;48.312;9.246;2022-09-12T18:47:54;93438.13;;;13.42;81.61
71057;BME280;58380;48.312;9.246;2022-09-12T18:50:20;93502.09;;;13.64;82.22
71057;BME280;58380;48.312;9.246;2022-09-12T18:52:47;93464.78;;;13.21;83.05
71057;BME280;58380;48.312;9.246;2022-09-12T18:55:12;93432.94;;;12.92;83.04
71057;BME280;58380;48.312;9.246;2022-09-12T18:57:38;93475.09;;;13.23;83.21
71057;BME280;58380;48.312;9.246;2022-09-12T19:00:05;93507.34;;;13.40;82.83
71057;BME280;58380;48.312;9.246;2022-09-12T19:02:32;93471.97;;;13.21;82.70
71057;BME280;58380;48.312;9.246;2022-09-12T19:04:57;93502.91;;;13.25;83.28
71057;BME280;58380;48.312;9.246;2022-09-12T19:07:23;93489.88;;;12.94;84.16